Portada
METAR-TAF:

METAR-TAF

Aeroports :

Vanua Lava, Vanuatu

latitud: 13-51-06S, longitud: 167-32-13E, altitud: 2 m

Observació

L'informe es va fer fa 2 hores i 22 minuts, a les 00:00 UTC
Vent 5 kt del Est/Sud-Est
Temperatura 30°C
Humitat 70%
Pressió 1012 hPa
Visibilitat 10 km o més
Núvols disperses a una alçada de 2000 ft

METAR: NVSC 270000Z 11005KT 9999 SCT020 30/24 Q1012

Hora: 13:22 (02:22 UTC)

Pronòstic

L'informe es va fer fa 4 hores i 2 minuts, a les 22:20 UTC
Pronòstic vàlid del 27 a les 00 UTC al 27 a les 24 UTC
Vent 6 kt del Sud/Sud-Est
Visibilitat 10 km o més
Núvols disperses a una alçada de 2000 ft
Probabilitat 40%
entre IN i TE UTC
Visibilitat: 9000 m
Cel ennuvolat a una alçada de 1800 ft
xàfecs de pluja

TAF: NVSC 262220Z 2700/2724 15006KT 9999 SCT020 PROB40 INTER 2700/2706 9000 -SHRA BKN018

Observacions i pronòstics meteorològics de més de 4000 aeroports (METAR i TAF).

Les estacions disponibles són els punts grocs i vermells al mapa.

Posi el ratolí al punt desitjat per veure el nom de l'estació.

Feu clic per veure les observacions i els pronòstics meteorològics.

Per canviar el mapa: feu clic els botons verds amb una creu de color negre per apropar; al botó verd amb un guió per allunyar la imatge; o en les fletxes verdes per a mapes adjacents.


METAR-TAF: